Barfleur — FNIE — position and weather

sailwx.info

Track history (hours):
 
Tides and Currents Weather Stations Pressure Air Temp Water Temp Dewpoint Dewpoint Depression Visibility Wind Speed Wind Dir Waves Ship Positions

Barfleur

Operator: Brittany Ferries

Last reported at 2015-Sep-02 05:33 UTC. Time now 2015-Sep-02 06:28 UTC.
Position N 50°42' W 001°59'.

Length 158 m; draft 5 m.

Type: Passenger vessel. MMSI: 227289000.

Date/timePositionNaut miles runAvg speedWind from/ knotsBaromVisibWave heightAir tempDewpointWater temp
2015-Sep-02 05:33N 50°42' W 001°59'0 0.0
2015-Sep-02 04:33N 50°42' W 001°59'0 0.0
2015-Sep-02 03:33N 50°42' W 001°59'0 0.0
2015-Sep-02 02:33N 50°42' W 001°59'0 0.0
2015-Sep-02 01:33N 50°42' W 001°59'0 0.0
2015-Sep-02 00:33N 50°42' W 001°59'0 0.0
2015-Sep-01 23:33N 50°42' W 001°59'0 0.0
2015-Sep-01 22:33N 50°42' W 001°59'0 0.0
2015-Sep-01 21:33N 50°42' W 001°59'0 0.0
2015-Sep-01 20:33N 50°42' W 001°59'1211.9
2015-Sep-01 19:33N 50°32' W 001°51'2 0.2
2015-Sep-01 08:33N 50°30' W 001°51'1413.8
2015-Sep-01 07:33N 50°42' W 001°59'1 0.6
2015-Sep-01 06:33N 50°42' W 001°59'0 0.0
2015-Sep-01 05:33N 50°42' W 001°59'0 0.0
2015-Sep-01 04:26N 50°42' W 001°59'0 0.0
2015-Sep-01 03:33N 50°42' W 001°59'0 0.0
2015-Sep-01 02:33N 50°42' W 001°59'0 0.0
2015-Sep-01 01:34N 50°42' W 001°59'0 0.0
2015-Sep-01 00:33N 50°42' W 001°59'0 0.0
2015-Aug-31 23:33N 50°42' W 001°59'0 0.0
2015-Aug-31 22:33N 50°42' W 001°59'0 0.0
2015-Aug-31 21:33N 50°42' W 001°59'2 1.9
2015-Aug-31 20:33N 50°41' W 001°57'1717.2
2015-Aug-31 19:33N 50°25' W 001°50'5 0.5
2015-Aug-31 08:33N 50°30' W 001°49'1413.8
2015-Aug-31 07:33N 50°42' W 001°58'1 1.1
2015-Aug-31 06:33N 50°42' W 001°59'0 0.0
2015-Aug-31 05:33N 50°42' W 001°59'0 0.0
2015-Aug-31 04:33N 50°42' W 001°59'0 0.0
2015-Aug-31 03:33N 50°42' W 001°59'0 0.0
2015-Aug-31 02:33N 50°42' W 001°59'0 0.0
2015-Aug-31 01:33N 50°42' W 001°59'0 0.0
2015-Aug-31 00:34N 50°42' W 001°59'0 0.0
2015-Aug-30 23:33N 50°42' W 001°59'0 0.0
2015-Aug-30 22:34N 50°42' W 001°59'0 0.0
2015-Aug-30 21:33N 50°42' W 001°59'0 0.1
2015-Aug-30 20:34N 50°42' W 001°59'1414.3
2015-Aug-30 19:33N 50°29' W 001°50'1 0.1
2015-Aug-30 08:26N 50°30' W 001°50'1315.3
2015-Aug-30 07:34N 50°42' W 001°57'1 1.5
2015-Aug-30 06:33N 50°42' W 001°59'0 0.0
2015-Aug-30 05:33N 50°42' W 001°59'0 0.0
2015-Aug-30 04:07N 50°42' W 001°59'0 0.0
2015-Aug-30 03:33N 50°42' W 001°59'0 0.0
2015-Aug-30 02:34N 50°42' W 001°59'0 0.0
2015-Aug-30 01:33N 50°42' W 001°59'0 0.0
2015-Aug-30 00:33N 50°42' W 001°59'0 0.0
2015-Aug-29 23:33N 50°42' W 001°59'0 0.0
2015-Aug-29 22:33N 50°42' W 001°59'0 0.0
2015-Aug-29 21:33N 50°42' W 001°59'0 0.4
2015-Aug-29 20:34N 50°42' W 001°59'1515.0
2015-Aug-29 19:33N 50°28' W 001°51'2 0.2
2015-Aug-29 08:33N 50°26' W 001°51'1616.1
2015-Aug-29 07:33N 50°41' W 001°57'2 1.7
2015-Aug-29 06:33N 50°42' W 001°59'0 0.0
2015-Aug-29 05:33N 50°42' W 001°59'0 0.0
2015-Aug-29 04:33N 50°42' W 001°59'0 0.0
2015-Aug-29 03:33N 50°42' W 001°59'0 0.0
2015-Aug-29 02:33N 50°42' W 001°59'0 0.0
2015-Aug-29 01:33N 50°42' W 001°59'0 0.0
2015-Aug-29 00:33N 50°42' W 001°59'0 0.0
2015-Aug-28 23:33N 50°42' W 001°59'0 0.0
2015-Aug-28 22:33N 50°42' W 001°59'0 0.0
2015-Aug-28 21:33N 50°42' W 001°59'0 0.1
2015-Aug-28 20:34N 50°42' W 001°60'1413.6
2015-Aug-28 19:33N 50°30' W 001°51'3 0.3
2015-Aug-28 08:33N 50°27' W 001°50'1615.9
2015-Aug-28 07:33N 50°42' W 001°57'2 1.6
2015-Aug-28 06:33N 50°42' W 001°59'0 0.0
2015-Aug-28 05:33N 50°42' W 001°59'0 0.0
2015-Aug-28 04:33N 50°42' W 001°59'0 0.0
2015-Aug-28 03:33N 50°42' W 001°59'0 0.0
2015-Aug-28 02:33N 50°42' W 001°59'0 0.0
2015-Aug-28 01:33N 50°42' W 001°59'0 0.0
2015-Aug-28 00:33N 50°42' W 001°59'0 0.0
2015-Aug-27 23:33N 50°42' W 001°59'0 0.0
2015-Aug-27 22:33N 50°42' W 001°59'0 0.0
2015-Aug-27 21:33N 50°42' W 001°59'2 2.4
2015-Aug-27 20:33N 50°41' W 001°57'1717.3
2015-Aug-27 19:33N 50°24' W 001°50'5 0.4
2015-Aug-27 08:31N 50°29' W 001°51'1514.9
2015-Aug-27 07:33N 50°42' W 001°58'1 0.7
2015-Aug-27 06:33N 50°42' W 001°59'0 0.0
2015-Aug-27 05:33N 50°42' W 001°59'0 0.0
2015-Aug-27 04:34N 50°42' W 001°59'0 0.0
2015-Aug-27 03:33N 50°42' W 001°59'0 0.0
2015-Aug-27 02:33N 50°42' W 001°59'0 0.0
2015-Aug-27 01:33N 50°42' W 001°59'0 0.0
2015-Aug-27 00:33N 50°42' W 001°59'0 0.0
2015-Aug-26 23:34N 50°42' W 001°59'0 0.0
2015-Aug-26 22:33N 50°42' W 001°59'0 0.0
2015-Aug-26 21:33N 50°42' W 001°59'2 2.3
2015-Aug-26 20:34N 50°41' W 001°57'1716.9
2015-Aug-26 19:33N 50°24' W 001°51'6 0.5
2015-Aug-26 08:33N 50°30' W 001°52'1313.2
2015-Aug-26 07:33N 50°42' W 001°59'0 0.0
2015-Aug-26 06:34N 50°42' W 001°59'0 0.0
2015-Aug-26 05:33N 50°42' W 001°59'0 0.0
2015-Aug-26 04:33N 50°42' W 001°59'0 0.0
2015-Aug-26 03:33N 50°42' W 001°59'0 0.0
2015-Aug-26 02:33N 50°42' W 001°59'0 0.0
2015-Aug-26 01:33N 50°42' W 001°59'0 0.0
2015-Aug-26 00:33N 50°42' W 001°59'0 0.0
2015-Aug-25 23:33N 50°42' W 001°59'0 0.0
2015-Aug-25 22:33N 50°42' W 001°59'0 0.0
2015-Aug-25 21:33N 50°42' W 001°59'4 4.4
2015-Aug-25 20:34N 50°39' W 001°55'10 0.8
2015-Aug-25 08:31N 50°30' W 001°52'1414.1
2015-Aug-25 07:34N 50°42' W 001°59'0 0.4
2015-Aug-25 06:33N 50°42' W 001°59'0 0.0
2015-Aug-25 05:34N 50°42' W 001°59'0 0.0
2015-Aug-25 04:33N 50°42' W 001°59'0 0.0
2015-Aug-25 03:34N 50°42' W 001°59'0 0.0
2015-Aug-25 02:34N 50°42' W 001°59'0 0.0
2015-Aug-25 01:33N 50°42' W 001°59'0 0.0
2015-Aug-25 00:33N 50°42' W 001°59'0 0.0
2015-Aug-24 23:33N 50°42' W 001°59'0 0.0
2015-Aug-24 22:34N 50°42' W 001°59'0 0.0
2015-Aug-24 21:34N 50°42' W 001°59'3 3.0
2015-Aug-24 20:34N 50°40' W 001°56'1717.3
2015-Aug-24 19:33N 50°23' W 001°50'7 0.6
2015-Aug-24 08:32N 50°30' W 001°52'1313.5
2015-Aug-24 07:33N 50°42' W 001°59'0 0.0
2015-Aug-24 06:33N 50°42' W 001°59'0 0.0
2015-Aug-24 05:33N 50°42' W 001°59'0 0.0
2015-Aug-24 04:33N 50°42' W 001°59'0 0.0
2015-Aug-24 03:33N 50°42' W 001°59'0 0.0
2015-Aug-24 02:33N 50°42' W 001°59'0 0.0
2015-Aug-24 01:33N 50°42' W 001°59'0 0.0
2015-Aug-24 00:33N 50°42' W 001°59'0 0.0
2015-Aug-23 23:33N 50°42' W 001°59'0 0.0
2015-Aug-23 22:33N 50°42' W 001°59'0 0.0
2015-Aug-23 21:33N 50°42' W 001°59'0 0.0
2015-Aug-23 20:33N 50°42' W 001°59'1111.0
2015-Aug-23 19:33N 50°33' W 001°52'5 0.4
2015-Aug-23 08:30N 50°28' W 001°50'1515.7
2015-Aug-23 07:33N 50°42' W 001°58'1 0.9
2015-Aug-23 06:33N 50°42' W 001°59'  
Track history (hours):
 
Tides and Currents Weather Stations Pressure Air Temp Water Temp Dewpoint Dewpoint Depression Visibility Wind Speed Wind Dir Waves Ship Positions

Barfleur

Operator: Brittany Ferries

Last reported at 2015-Sep-02 05:33 UTC. Time now 2015-Sep-02 06:28 UTC.
Position N 50°42' W 001°59'.

Length 158 m; draft 5 m.

Type: Passenger vessel. MMSI: 227289000.

Date/timePositionNaut miles runAvg speedWind from/ knotsBaromVisibWave heightAir tempDewpointWater temp
2015-Sep-02 05:33N 50°42' W 001°59'0 0.0
2015-Sep-02 04:33N 50°42' W 001°59'0 0.0
2015-Sep-02 03:33N 50°42' W 001°59'0 0.0
2015-Sep-02 02:33N 50°42' W 001°59'0 0.0
2015-Sep-02 01:33N 50°42' W 001°59'0 0.0
2015-Sep-02 00:33N 50°42' W 001°59'0 0.0
2015-Sep-01 23:33N 50°42' W 001°59'0 0.0
2015-Sep-01 22:33N 50°42' W 001°59'0 0.0
2015-Sep-01 21:33N 50°42' W 001°59'0 0.0
2015-Sep-01 20:33N 50°42' W 001°59'1211.9
2015-Sep-01 19:33N 50°32' W 001°51'2 0.2
2015-Sep-01 08:33N 50°30' W 001°51'1413.8
2015-Sep-01 07:33N 50°42' W 001°59'1 0.6
2015-Sep-01 06:33N 50°42' W 001°59'0 0.0
2015-Sep-01 05:33N 50°42' W 001°59'0 0.0
2015-Sep-01 04:26N 50°42' W 001°59'0 0.0
2015-Sep-01 03:33N 50°42' W 001°59'0 0.0
2015-Sep-01 02:33N 50°42' W 001°59'0 0.0
2015-Sep-01 01:34N 50°42' W 001°59'0 0.0
2015-Sep-01 00:33N 50°42' W 001°59'0 0.0
2015-Aug-31 23:33N 50°42' W 001°59'0 0.0
2015-Aug-31 22:33N 50°42' W 001°59'0 0.0
2015-Aug-31 21:33N 50°42' W 001°59'2 1.9
2015-Aug-31 20:33N 50°41' W 001°57'1717.2
2015-Aug-31 19:33N 50°25' W 001°50'5 0.5
2015-Aug-31 08:33N 50°30' W 001°49'1413.8
2015-Aug-31 07:33N 50°42' W 001°58'1 1.1
2015-Aug-31 06:33N 50°42' W 001°59'0 0.0
2015-Aug-31 05:33N 50°42' W 001°59'0 0.0
2015-Aug-31 04:33N 50°42' W 001°59'0 0.0
2015-Aug-31 03:33N 50°42' W 001°59'0 0.0
2015-Aug-31 02:33N 50°42' W 001°59'0 0.0
2015-Aug-31 01:33N 50°42' W 001°59'0 0.0
2015-Aug-31 00:34N 50°42' W 001°59'0 0.0
2015-Aug-30 23:33N 50°42' W 001°59'0 0.0
2015-Aug-30 22:34N 50°42' W 001°59'0 0.0
2015-Aug-30 21:33N 50°42' W 001°59'0 0.1
2015-Aug-30 20:34N 50°42' W 001°59'1414.3
2015-Aug-30 19:33N 50°29' W 001°50'1 0.1
2015-Aug-30 08:26N 50°30' W 001°50'1315.3
2015-Aug-30 07:34N 50°42' W 001°57'1 1.5
2015-Aug-30 06:33N 50°42' W 001°59'0 0.0
2015-Aug-30 05:33N 50°42' W 001°59'0 0.0
2015-Aug-30 04:07N 50°42' W 001°59'0 0.0
2015-Aug-30 03:33N 50°42' W 001°59'0 0.0
2015-Aug-30 02:34N 50°42' W 001°59'0 0.0
2015-Aug-30 01:33N 50°42' W 001°59'0 0.0
2015-Aug-30 00:33N 50°42' W 001°59'0 0.0
2015-Aug-29 23:33N 50°42' W 001°59'0 0.0
2015-Aug-29 22:33N 50°42' W 001°59'0 0.0
2015-Aug-29 21:33N 50°42' W 001°59'0 0.4
2015-Aug-29 20:34N 50°42' W 001°59'1515.0
2015-Aug-29 19:33N 50°28' W 001°51'2 0.2
2015-Aug-29 08:33N 50°26' W 001°51'1616.1
2015-Aug-29 07:33N 50°41' W 001°57'2 1.7
2015-Aug-29 06:33N 50°42' W 001°59'0 0.0
2015-Aug-29 05:33N 50°42' W 001°59'0 0.0
2015-Aug-29 04:33N 50°42' W 001°59'0 0.0
2015-Aug-29 03:33N 50°42' W 001°59'0 0.0
2015-Aug-29 02:33N 50°42' W 001°59'0 0.0
2015-Aug-29 01:33N 50°42' W 001°59'0 0.0
2015-Aug-29 00:33N 50°42' W 001°59'0 0.0
2015-Aug-28 23:33N 50°42' W 001°59'0 0.0
2015-Aug-28 22:33N 50°42' W 001°59'0 0.0
2015-Aug-28 21:33N 50°42' W 001°59'0 0.1
2015-Aug-28 20:34N 50°42' W 001°60'1413.6
2015-Aug-28 19:33N 50°30' W 001°51'3 0.3
2015-Aug-28 08:33N 50°27' W 001°50'1615.9
2015-Aug-28 07:33N 50°42' W 001°57'2 1.6
2015-Aug-28 06:33N 50°42' W 001°59'0 0.0
2015-Aug-28 05:33N 50°42' W 001°59'0 0.0
2015-Aug-28 04:33N 50°42' W 001°59'0 0.0
2015-Aug-28 03:33N 50°42' W 001°59'0 0.0
2015-Aug-28 02:33N 50°42' W 001°59'0 0.0
2015-Aug-28 01:33N 50°42' W 001°59'0 0.0
2015-Aug-28 00:33N 50°42' W 001°59'0 0.0
2015-Aug-27 23:33N 50°42' W 001°59'0 0.0
2015-Aug-27 22:33N 50°42' W 001°59'0 0.0
2015-Aug-27 21:33N 50°42' W 001°59'2 2.4
2015-Aug-27 20:33N 50°41' W 001°57'1717.3
2015-Aug-27 19:33N 50°24' W 001°50'5 0.4
2015-Aug-27 08:31N 50°29' W 001°51'1514.9
2015-Aug-27 07:33N 50°42' W 001°58'1 0.7
2015-Aug-27 06:33N 50°42' W 001°59'0 0.0
2015-Aug-27 05:33N 50°42' W 001°59'0 0.0
2015-Aug-27 04:34N 50°42' W 001°59'0 0.0
2015-Aug-27 03:33N 50°42' W 001°59'0 0.0
2015-Aug-27 02:33N 50°42' W 001°59'0 0.0
2015-Aug-27 01:33N 50°42' W 001°59'0 0.0
2015-Aug-27 00:33N 50°42' W 001°59'0 0.0
2015-Aug-26 23:34N 50°42' W 001°59'0 0.0
2015-Aug-26 22:33N 50°42' W 001°59'0 0.0
2015-Aug-26 21:33N 50°42' W 001°59'2 2.3
2015-Aug-26 20:34N 50°41' W 001°57'1716.9
2015-Aug-26 19:33N 50°24' W 001°51'6 0.5
2015-Aug-26 08:33N 50°30' W 001°52'1313.2
2015-Aug-26 07:33N 50°42' W 001°59'0 0.0
2015-Aug-26 06:34N 50°42' W 001°59'0 0.0
2015-Aug-26 05:33N 50°42' W 001°59'0 0.0
2015-Aug-26 04:33N 50°42' W 001°59'0 0.0
2015-Aug-26 03:33N 50°42' W 001°59'0 0.0
2015-Aug-26 02:33N 50°42' W 001°59'0 0.0
2015-Aug-26 01:33N 50°42' W 001°59'0 0.0
2015-Aug-26 00:33N 50°42' W 001°59'0 0.0
2015-Aug-25 23:33N 50°42' W 001°59'0 0.0
2015-Aug-25 22:33N 50°42' W 001°59'0 0.0
2015-Aug-25 21:33N 50°42' W 001°59'4 4.4
2015-Aug-25 20:34N 50°39' W 001°55'10 0.8
2015-Aug-25 08:31N 50°30' W 001°52'1414.1
2015-Aug-25 07:34N 50°42' W 001°59'0 0.4
2015-Aug-25 06:33N 50°42' W 001°59'0 0.0
2015-Aug-25 05:34N 50°42' W 001°59'0 0.0
2015-Aug-25 04:33N 50°42' W 001°59'0 0.0
2015-Aug-25 03:34N 50°42' W 001°59'0 0.0
2015-Aug-25 02:34N 50°42' W 001°59'0 0.0
2015-Aug-25 01:33N 50°42' W 001°59'0 0.0
2015-Aug-25 00:33N 50°42' W 001°59'0 0.0
2015-Aug-24 23:33N 50°42' W 001°59'0 0.0
2015-Aug-24 22:34N 50°42' W 001°59'0 0.0
2015-Aug-24 21:34N 50°42' W 001°59'3 3.0
2015-Aug-24 20:34N 50°40' W 001°56'1717.3
2015-Aug-24 19:33N 50°23' W 001°50'7 0.6
2015-Aug-24 08:32N 50°30' W 001°52'1313.5
2015-Aug-24 07:33N 50°42' W 001°59'0 0.0
2015-Aug-24 06:33N 50°42' W 001°59'0 0.0
2015-Aug-24 05:33N 50°42' W 001°59'0 0.0
2015-Aug-24 04:33N 50°42' W 001°59'0 0.0
2015-Aug-24 03:33N 50°42' W 001°59'0 0.0
2015-Aug-24 02:33N 50°42' W 001°59'0 0.0
2015-Aug-24 01:33N 50°42' W 001°59'0 0.0
2015-Aug-24 00:33N 50°42' W 001°59'0 0.0
2015-Aug-23 23:33N 50°42' W 001°59'0 0.0
2015-Aug-23 22:33N 50°42' W 001°59'0 0.0
2015-Aug-23 21:33N 50°42' W 001°59'0 0.0
2015-Aug-23 20:33N 50°42' W 001°59'1111.0
2015-Aug-23 19:33N 50°33' W 001°52'5 0.4
2015-Aug-23 08:30N 50°28' W 001°50'1515.7
2015-Aug-23 07:33N 50°42' W 001°58'1 0.9
2015-Aug-23 06:33N 50°42' W 001°59'  

Dump ship's entire track history